Time;durP1;ratioP1;P1;durP2;ratioP2;P2;SDS_P1;SDS_P2;PMS_P1;PMS_P2;Temp;Humidity;BMP_temperature;BMP_pressure;BME280_temperature;BME280_humidity;BME280_pressure;Samples;Min_cycle;Max_cycle;Signal;HPM_P1;HPM_P2
2022/06/23 07:31:09;;;;;;;3.62;2.00;;;;;;;18.08;85.84;98971.36;1714207;82;22028;-48
2022/06/23 07:33:44;;;;;;;4.85;2.10;;;;;;;17.95;85.41;98972.94;1635090;86;21478;-48
2022/06/23 07:36:18;;;;;;;2.45;2.22;;;;;;;17.92;85.14;98970.45;1637221;85;21001;-41
2022/06/23 07:38:57;;;;;;;5.35;2.25;;;;;;;17.88;86.16;98975.04;1644396;85;21080;-48
2022/06/23 07:41:32;;;;;;;4.10;2.20;;;;;;;17.79;86.49;98978.13;1636669;85;21057;-41
2022/06/23 07:44:03;;;;;;;2.45;2.20;;;;;;;17.63;86.57;98980.67;1636001;86;21053;-48
2022/06/23 07:46:31;;;;;;;2.87;2.67;;;;;;;17.51;88.26;98993.15;1634233;86;21030;-41
2022/06/23 07:48:57;;;;;;;5.95;3.00;;;;;;;17.41;90.13;99003.80;1625590;87;21021;-49
2022/06/23 07:51:25;;;;;;;4.08;2.90;;;;;;;17.30;91.08;99001.67;1629315;88;21616;-42
2022/06/23 07:53:53;;;;;;;2.92;2.72;;;;;;;17.22;92.11;98998.08;1627857;87;21079;-41
2022/06/23 07:56:25;;;;;;;5.28;4.42;;;;;;;17.15;92.80;99005.88;1635085;87;21034;-48
2022/06/23 07:58:56;;;;;;;3.87;3.25;;;;;;;17.11;93.77;99017.55;1631726;86;21021;-49
2022/06/23 08:01:28;;;;;;;3.72;3.37;;;;;;;17.09;93.73;99006.64;1618623;87;21045;-41
2022/06/23 08:04:07;;;;;;;4.12;3.58;;;;;;;17.08;94.67;98993.90;1627998;87;21012;-48
2022/06/23 08:06:35;;;;;;;4.42;3.72;;;;;;;17.06;93.65;99005.02;1558029;90;21045;-41
2022/06/23 08:09:10;;;;;;;7.17;3.90;;;;;;;16.99;94.40;99005.77;1560928;91;21057;-48
2022/06/23 08:14:32;;;;;;;4.45;3.80;;;;;;;16.88;96.57;99023.89;1560299;90;21086;-41
2022/06/23 08:17:01;;;;;;;4.95;3.90;;;;;;;16.82;98.21;99029.46;1558913;90;21136;-42
2022/06/23 08:19:56;;;;;;;5.67;3.87;;;;;;;16.74;99.85;99027.14;1562606;90;21006;-41
2022/06/23 08:22:26;;;;;;;4.65;4.17;;;;;;;16.62;100.00;99026.81;1560702;89;21652;-41
2022/06/23 08:24:56;;;;;;;4.20;3.80;;;;;;;16.45;100.00;99030.19;1567413;90;21028;-48
2022/06/23 08:27:28;;;;;;;5.05;3.83;;;;;;;16.34;100.00;99034.61;1559126;90;21074;-42
2022/06/23 08:29:56;;;;;;;4.62;4.20;;;;;;;16.29;100.00;99040.55;1563468;89;21045;-41
2022/06/23 08:32:23;;;;;;;5.85;4.22;;;;;;;16.27;100.00;99049.00;1561965;90;21097;-48
2022/06/23 08:34:58;;;;;;;3.65;3.35;;;;;;;16.27;100.00;99058.24;1565074;90;21054;-41
2022/06/23 08:37:25;;;;;;;4.25;3.67;;;;;;;16.30;100.00;99072.64;1562011;90;21140;-41
2022/06/23 08:39:59;;;;;;;5.70;3.35;;;;;;;16.31;100.00;99070.39;1562192;90;21079;-41
2022/06/23 08:42:53;;;;;;;7.40;3.77;;;;;;;16.32;100.00;99070.78;1556072;90;21073;-41
2022/06/23 08:45:34;;;;;;;4.25;3.85;;;;;;;16.32;100.00;99073.88;1633452;87;21355;-41
2022/06/23 08:48:25;;;;;;;3.52;3.22;;;;;;;16.35;100.00;99069.78;1641475;85;21518;-48
2022/06/23 08:51:02;;;;;;;3.75;3.45;;;;;;;16.40;100.00;99076.58;1628394;85;21063;-41
2022/06/23 08:53:47;;;;;;;8.73;3.67;;;;;;;16.43;100.00;99087.02;1638198;87;21013;-49
2022/06/23 08:56:34;;;;;;;4.28;3.22;;;;;;;16.44;100.00;99092.69;1632828;87;21036;-49
2022/06/23 08:59:24;;;;;;;4.47;3.58;;;;;;;16.47;100.00;99104.91;1628609;87;21045;-41
2022/06/23 09:02:11;;;;;;;3.92;3.30;;;;;;;16.49;100.00;99105.70;1637127;87;21124;-43
2022/06/23 09:04:58;;;;;;;3.60;3.30;;;;;;;16.45;100.00;99104.95;1624275;87;20994;-42
2022/06/23 09:07:46;;;;;;;2.80;2.60;;;;;;;16.43;100.00;99111.23;1623837;87;21028;-42
2022/06/23 09:10:25;;;;;;;2.62;2.42;;;;;;;16.40;100.00;99109.57;1636128;86;21556;-49
2022/06/23 09:13:00;;;;;;;3.15;2.42;;;;;;;16.38;100.00;99115.85;1632607;86;21069;-42
2022/06/23 09:15:58;;;;;;;2.17;1.87;;;;;;;16.39;100.00;99126.80;1635695;87;21057;-49
2022/06/23 09:19:03;;;;;;;2.30;2.10;;;;;;;16.39;100.00;99119.73;1633151;86;21045;-42
2022/06/23 09:21:53;;;;;;;4.87;1.90;;;;;;;16.38;100.00;99132.55;1632783;87;21096;-42
2022/06/23 09:24:59;;;;;;;2.10;1.90;;;;;;;16.37;100.00;99134.80;1634161;87;20981;-41
2022/06/23 09:27:40;;;;;;;2.12;1.92;;;;;;;16.36;100.00;99139.68;1633272;86;21092;-41
2022/06/23 09:30:29;;;;;;;1.70;1.60;;;;;;;16.40;100.00;99140.39;1644214;85;21033;-42
2022/06/23 09:33:00;;;;;;;1.70;1.60;;;;;;;16.43;100.00;99139.81;1631706;87;21083;-49
2022/06/23 09:36:01;;;;;;;2.02;1.70;;;;;;;16.44;100.00;99154.72;1642901;87;21000;-49
2022/06/23 09:38:58;;;;;;;4.12;1.70;;;;;;;16.43;100.00;99157.44;1643203;87;21536;-41
2022/06/23 09:41:30;;;;;;;2.05;1.57;;;;;;;16.39;100.00;99158.02;1643766;87;21713;-42
2022/06/23 09:44:31;;;;;;;1.90;1.80;;;;;;;16.37;100.00;99156.38;1639406;87;21012;-48
2022/06/23 09:47:39;;;;;;;6.87;1.85;;;;;;;16.37;100.00;99165.14;1635608;87;21077;-42
2022/06/23 09:50:23;;;;;;;1.75;1.42;;;;;;;16.40;100.00;99158.41;1628564;87;21654;-48
2022/06/23 09:53:10;;;;;;;2.20;1.65;;;;;;;16.45;100.00;99169.63;1627369;87;21151;-49
2022/06/23 09:56:00;;;;;;;2.22;1.60;;;;;;;16.47;100.00;99165.63;1628319;87;21021;-49
2022/06/23 09:59:11;;;;;;;1.92;1.40;;;;;;;16.49;100.00;99165.09;1629046;86;21009;-48
2022/06/23 10:01:58;;;;;;;1.20;1.10;;;;;;;16.51;100.00;99165.88;1577835;91;21063;-48
2022/06/23 10:04:33;;;;;;;1.70;1.60;;;;;;;16.54;100.00;99181.60;1577451;90;21046;-48
2022/06/23 10:07:23;;;;;;;1.60;1.47;;;;;;;16.54;100.00;99180.75;1577917;91;21700;-41
2022/06/23 10:10:29;;;;;;;1.62;1.52;;;;;;;16.56;100.00;99188.13;1578120;90;21074;-49
2022/06/23 10:13:13;;;;;;;2.40;2.00;;;;;;;16.60;100.00;99182.66;1578196;91;21122;-42
2022/06/23 10:16:10;;;;;;;2.37;1.67;;;;;;;16.69;100.00;99181.41;1578491;90;21059;-48
2022/06/23 10:18:57;;;;;;;5.30;1.80;;;;;;;16.77;100.00;99179.34;1536530;92;21226;-49
2022/06/23 10:21:53;;;;;;;2.08;1.90;;;;;;;16.85;100.00;99184.29;1536785;93;21106;-49
2022/06/23 10:24:36;;;;;;;1.52;1.42;;;;;;;16.91;100.00;99190.16;1536590;93;21106;-49
2022/06/23 10:27:18;;;;;;;1.50;1.40;;;;;;;17.05;100.00;99197.94;1524453;94;21181;-42
2022/06/23 10:30:07;;;;;;;2.00;1.62;;;;;;;17.22;100.00;99196.73;1523967;94;21028;-48
2022/06/23 10:33:05;;;;;;;1.72;1.62;;;;;;;17.41;100.00;99197.65;1473494;97;21645;-41
2022/06/23 10:35:59;;;;;;;2.05;1.15;;;;;;;17.56;100.00;99195.61;1468851;97;21087;-49
2022/06/23 10:38:52;;;;;;;1.98;1.55;;;;;;;17.72;100.00;99192.30;1463570;97;21313;-41
2022/06/23 10:41:58;;;;;;;2.50;1.40;;;;;;;17.88;100.00;99187.16;1457682;97;21142;-48
2022/06/23 10:45:04;;;;;;;4.83;1.47;;;;;;;17.96;100.00;99192.46;1429621;100;21152;-42
2022/06/23 10:48:04;;;;;;;3.37;1.37;;;;;;;18.11;100.00;99197.97;1442615;98;21167;-48
2022/06/23 10:50:52;;;;;;;3.70;1.72;;;;;;;18.33;99.25;99192.03;1417451;100;21153;-41
2022/06/23 10:53:43;;;;;;;1.95;1.45;;;;;;;18.63;100.00;99190.97;1462085;97;21135;-48
2022/06/23 10:56:54;;;;;;;7.67;1.45;;;;;;;18.82;98.47;99195.75;1529386;93;21068;-41
2022/06/23 10:59:35;;;;;;;1.17;1.07;;;;;;;18.94;96.43;99204.86;1543875;91;21056;-44
2022/06/23 11:02:46;;;;;;;4.17;1.27;;;;;;;18.99;93.05;99195.35;1540954;91;21127;-48
2022/06/23 11:05:30;;;;;;;3.20;1.20;;;;;;;19.06;92.22;99196.27;1544547;91;21074;-48
2022/06/23 11:08:52;;;;;;;1.42;1.32;;;;;;;19.30;91.73;99190.61;1549675;91;21153;-48
2022/06/23 11:11:48;;;;;;;1.90;1.12;;;;;;;19.53;88.62;99200.84;1607808;88;21027;-48
2022/06/23 11:14:42;;;;;;;1.17;1.10;;;;;;;19.66;86.06;99201.95;1615274;88;21013;-41
2022/06/23 11:17:40;;;;;;;1.30;1.20;;;;;;;19.71;81.51;99208.78;1615616;88;21060;-41
2022/06/23 11:20:27;;;;;;;2.05;1.22;;;;;;;19.65;81.37;99212.62;1613230;88;21074;-41
2022/06/23 11:23:11;;;;;;;1.98;1.30;;;;;;;19.60;80.53;99206.27;1615000;88;21083;-41
2022/06/23 11:26:05;;;;;;;1.95;1.10;;;;;;;19.60;81.77;99210.72;1603430;89;21083;-48
2022/06/23 11:28:55;;;;;;;2.17;1.07;;;;;;;19.63;80.90;99206.08;1623930;88;21103;-48
2022/06/23 11:31:49;;;;;;;3.22;1.40;;;;;;;19.66;80.06;99211.23;1625113;88;21071;-47
2022/06/23 11:34:58;;;;;;;1.00;1.00;;;;;;;19.70;77.31;99221.20;1622729;86;21081;-41
2022/06/23 11:37:45;;;;;;;1.35;1.00;;;;;;;19.71;76.00;99226.88;1631082;86;21055;-48
2022/06/23 11:40:45;;;;;;;1.07;0.78;;;;;;;19.72;74.71;99230.42;1641676;86;21067;-41
2022/06/23 11:43:42;;;;;;;1.50;1.07;;;;;;;19.78;74.94;99230.09;1618484;87;21149;-41
2022/06/23 11:46:32;;;;;;;1.05;0.98;;;;;;;19.92;72.71;99222.22;1620277;88;21567;-48
2022/06/23 11:49:07;;;;;;;1.30;0.90;;;;;;;20.11;70.46;99212.75;1634144;88;21008;-48
2022/06/23 11:52:12;;;;;;;0.90;0.90;;;;;;;20.26;71.50;99203.92;1627464;86;21019;-42
2022/06/23 11:55:13;;;;;;;1.20;0.72;;;;;;;20.34;71.01;99207.46;1625101;87;21052;-41
2022/06/23 11:58:13;;;;;;;1.80;1.07;;;;;;;20.42;69.38;99214.54;1649349;86;21746;-47
2022/06/23 12:00:56;;;;;;;2.67;0.90;;;;;;;20.45;69.12;99217.00;1663393;86;21008;-41
2022/06/23 12:03:37;;;;;;;2.87;0.60;;;;;;;20.42;65.27;99209.23;1663136;86;21147;-48
2022/06/23 12:06:46;;;;;;;1.50;1.05;;;;;;;20.44;64.64;99209.51;1662984;86;21496;-48
2022/06/23 12:09:48;;;;;;;1.22;0.85;;;;;;;20.55;67.27;99214.72;1653989;86;21200;-42
2022/06/23 12:12:15;;;;;;;2.00;0.93;;;;;;;20.70;65.85;99213.36;1659155;85;21080;-48
2022/06/23 12:14:42;;;;;;;2.98;1.40;;;;;;;20.87;66.62;99208.38;1663730;85;21013;-47
2022/06/23 12:17:36;;;;;;;3.80;1.20;;;;;;;20.93;65.45;99212.00;1669395;85;21068;-41
2022/06/23 12:20:54;;;;;;;2.37;1.20;;;;;;;20.88;65.52;99217.21;1689619;85;21119;-48
2022/06/23 12:23:46;;;;;;;2.15;1.30;;;;;;;20.72;66.18;99221.23;1663161;85;21151;-41
2022/06/23 12:26:32;;;;;;;1.30;1.20;;;;;;;20.58;65.13;99219.84;1644805;86;21069;-41
2022/06/23 12:29:27;;;;;;;1.55;1.25;;;;;;;20.50;67.04;99226.08;1667783;86;21055;-48
2022/06/23 12:32:05;;;;;;;1.00;1.00;;;;;;;20.52;69.28;99221.05;1666909;84;21132;-48
2022/06/23 12:35:02;;;;;;;1.47;1.05;;;;;;;20.66;66.77;99214.47;1640105;84;21089;-48
2022/06/23 12:37:49;;;;;;;0.88;0.88;;;;;;;20.79;65.44;99222.58;1611411;87;21727;-48
2022/06/23 12:40:43;;;;;;;0.75;0.75;;;;;;;20.89;63.64;99221.09;1619821;88;21537;-47
